RUK178 EGAA-EGPH
Flight info
| Callsign | RUK178 |
|---|---|
| Flight time | 0h 27m |
| Altitude | 23000 |
| Route | BLACA P600 TUNSO |
| Aircraft | B738/M-SDE2E3FGHIRWXY/LB1 |
Departure
| Time | 2026-04-22 00:46 |
|---|---|
| Airport | Belfast International Airport (EGAA) |
Arrival
| Time | 2026-04-22 01:13 |
|---|---|
| Airport | Edinburgh Airport (EGPH) |
| Time | Latitude | Longitude | Altitude | Speed | Heading |
|---|---|---|---|---|---|
| 2026-04-22 00:34 | 54.66006 | -6.21740 | 277 ft | 0 kts | 246° |
| 2026-04-22 00:38 | 54.66007 | -6.21737 | 277 ft | 1 kts | 246° |
| 2026-04-22 00:39 | 54.66013 | -6.21713 | 277 ft | 3 kts | 246° |
| 2026-04-22 00:39 | 54.66020 | -6.21683 | 277 ft | 3 kts | 246° |
| 2026-04-22 00:39 | 54.66028 | -6.21651 | 277 ft | 3 kts | 246° |
| 2026-04-22 00:39 | 54.66037 | -6.21618 | 277 ft | 3 kts | 246° |
| 2026-04-22 00:40 | 54.66045 | -6.21586 | 277 ft | 3 kts | 246° |
| 2026-04-22 00:40 | 54.66048 | -6.21574 | 277 ft | 0 kts | 246° |
| 2026-04-22 00:41 | 54.66048 | -6.21575 | 277 ft | 0 kts | 246° |
| 2026-04-22 00:42 | 54.66043 | -6.21591 | 277 ft | 3 kts | 237° |
| 2026-04-22 00:42 | 54.66023 | -6.21607 | 277 ft | 4 kts | 185° |
| 2026-04-22 00:42 | 54.65989 | -6.21591 | 277 ft | 6 kts | 158° |
| 2026-04-22 00:42 | 54.65943 | -6.21593 | 277 ft | 8 kts | 213° |
| 2026-04-22 00:43 | 54.65905 | -6.21682 | 277 ft | 11 kts | 244° |
| 2026-04-22 00:43 | 54.65869 | -6.21816 | 277 ft | 14 kts | 245° |
| 2026-04-22 00:43 | 54.65824 | -6.21982 | 277 ft | 17 kts | 245° |
| 2026-04-22 00:43 | 54.65780 | -6.22181 | 277 ft | 19 kts | 255° |
| 2026-04-22 00:44 | 54.65760 | -6.22424 | 277 ft | 22 kts | 263° |
| 2026-04-22 00:44 | 54.65743 | -6.22678 | 277 ft | 16 kts | 263° |
| 2026-04-22 00:44 | 54.65685 | -6.22788 | 277 ft | 14 kts | 169° |
| 2026-04-22 00:44 | 54.65583 | -6.22733 | 277 ft | 17 kts | 162° |
| 2026-04-22 00:45 | 54.65505 | -6.22690 | 277 ft | 5 kts | 162° |
| 2026-04-22 00:45 | 54.65468 | -6.22657 | 277 ft | 6 kts | 122° |
| 2026-04-22 00:45 | 54.65477 | -6.22584 | 277 ft | 7 kts | 65° |
| 2026-04-22 00:45 | 54.65577 | -6.22212 | 277 ft | 65 kts | 65° |
| 2026-04-22 00:46 | 54.65859 | -6.21163 | 277 ft | 127 kts | 65° |
| 2026-04-22 00:46 | 54.66286 | -6.19589 | 697 ft | 151 kts | 65° |
| 2026-04-22 00:46 | 54.66757 | -6.17897 | 1413 ft | 164 kts | 65° |
| 2026-04-22 00:46 | 54.67254 | -6.16036 | 2169 ft | 175 kts | 69° |
| 2026-04-22 00:47 | 54.67702 | -6.14028 | 2940 ft | 186 kts | 74° |
| 2026-04-22 00:47 | 54.68153 | -6.11856 | 3683 ft | 200 kts | 74° |
| 2026-04-22 00:47 | 54.68635 | -6.09521 | 4416 ft | 212 kts | 74° |
| 2026-04-22 00:47 | 54.69146 | -6.07048 | 5175 ft | 224 kts | 74° |
| 2026-04-22 00:48 | 54.69677 | -6.04471 | 6041 ft | 234 kts | 74° |
| 2026-04-22 00:48 | 54.70230 | -6.01778 | 6919 ft | 242 kts | 74° |
| 2026-04-22 00:48 | 54.70802 | -5.98975 | 7806 ft | 251 kts | 74° |
| 2026-04-22 00:48 | 54.71402 | -5.96087 | 8693 ft | 257 kts | 73° |
| 2026-04-22 00:49 | 54.72020 | -5.93131 | 9575 ft | 263 kts | 73° |
| 2026-04-22 00:49 | 54.72643 | -5.90146 | 10449 ft | 266 kts | 73° |
| 2026-04-22 00:49 | 54.73271 | -5.87106 | 11328 ft | 276 kts | 73° |
| 2026-04-22 00:49 | 54.73933 | -5.83887 | 12220 ft | 288 kts | 73° |
| 2026-04-22 00:50 | 54.74630 | -5.80547 | 13107 ft | 299 kts | 72° |
| 2026-04-22 00:50 | 54.75343 | -5.77116 | 13983 ft | 312 kts | 72° |
| 2026-04-22 00:50 | 54.76099 | -5.73501 | 14868 ft | 325 kts | 71° |
| 2026-04-22 00:50 | 54.76882 | -5.69751 | 15752 ft | 336 kts | 71° |
| 2026-04-22 00:51 | 54.77684 | -5.65919 | 16626 ft | 345 kts | 70° |
| 2026-04-22 00:51 | 54.78518 | -5.61958 | 17507 ft | 353 kts | 70° |
| 2026-04-22 00:51 | 54.79369 | -5.57889 | 18391 ft | 360 kts | 70° |
| 2026-04-22 00:51 | 54.80226 | -5.53817 | 19262 ft | 365 kts | 70° |
| 2026-04-22 00:52 | 54.81112 | -5.49645 | 20146 ft | 368 kts | 69° |
| 2026-04-22 00:52 | 54.81997 | -5.45447 | 21026 ft | 370 kts | 69° |
| 2026-04-22 00:52 | 54.82881 | -5.41252 | 21886 ft | 372 kts | 68° |
| 2026-04-22 00:52 | 54.83773 | -5.37040 | 22567 ft | 379 kts | 68° |
| 2026-04-22 00:53 | 54.84699 | -5.32660 | 22971 ft | 392 kts | 68° |
| 2026-04-22 00:53 | 54.85662 | -5.28143 | 23165 ft | 410 kts | 68° |
| 2026-04-22 00:53 | 54.86765 | -5.23463 | 23311 ft | 425 kts | 61° |
| 2026-04-22 00:53 | 54.88482 | -5.19268 | 23447 ft | 435 kts | 46° |
| 2026-04-22 00:54 | 54.90721 | -5.15692 | 23540 ft | 436 kts | 37° |
| 2026-04-22 00:54 | 54.93187 | -5.12603 | 23541 ft | 435 kts | 32° |
| 2026-04-22 00:54 | 54.95759 | -5.09843 | 23530 ft | 433 kts | 29° |
| 2026-04-22 00:54 | 54.98361 | -5.07298 | 23516 ft | 432 kts | 27° |
| 2026-04-22 00:55 | 55.01031 | -5.04856 | 23509 ft | 431 kts | 26° |
| 2026-04-22 00:55 | 55.03721 | -5.02496 | 23508 ft | 431 kts | 25° |
| 2026-04-22 00:55 | 55.08683 | -4.96805 | 23520 ft | 433 kts | 45° |
| 2026-04-22 00:56 | 55.10562 | -4.92647 | 23532 ft | 435 kts | 54° |
| 2026-04-22 00:56 | 55.12140 | -4.88176 | 23546 ft | 435 kts | 59° |
| 2026-04-22 00:56 | 55.13566 | -4.83542 | 23541 ft | 435 kts | 62° |
| 2026-04-22 00:56 | 55.14923 | -4.78781 | 23535 ft | 435 kts | 63° |
| 2026-04-22 00:57 | 55.16202 | -4.74031 | 23535 ft | 434 kts | 64° |
| 2026-04-22 00:57 | 55.17458 | -4.69211 | 23531 ft | 434 kts | 65° |
| 2026-04-22 00:57 | 55.18684 | -4.64430 | 23530 ft | 434 kts | 65° |
| 2026-04-22 00:57 | 55.19914 | -4.59603 | 23532 ft | 433 kts | 65° |
| 2026-04-22 00:58 | 55.21139 | -4.54776 | 23536 ft | 433 kts | 66° |
| 2026-04-22 00:58 | 55.22365 | -4.49949 | 23549 ft | 432 kts | 66° |
| 2026-04-22 00:58 | 55.23575 | -4.45187 | 23553 ft | 432 kts | 66° |
| 2026-04-22 00:58 | 55.24791 | -4.40350 | 23554 ft | 432 kts | 66° |
| 2026-04-22 00:59 | 55.25992 | -4.35498 | 23550 ft | 431 kts | 66° |
| 2026-04-22 00:59 | 55.27167 | -4.30716 | 23548 ft | 431 kts | 66° |
| 2026-04-22 00:59 | 55.28415 | -4.25916 | 23548 ft | 430 kts | 61° |
| 2026-04-22 00:59 | 55.30192 | -4.21824 | 23535 ft | 410 kts | 45° |
| 2026-04-22 01:00 | 55.32310 | -4.18767 | 23274 ft | 389 kts | 36° |
| 2026-04-22 01:00 | 55.34572 | -4.16271 | 22772 ft | 374 kts | 31° |
| 2026-04-22 01:00 | 55.36827 | -4.14134 | 22199 ft | 362 kts | 28° |
| 2026-04-22 01:00 | 55.39061 | -4.12186 | 21603 ft | 353 kts | 27° |
| 2026-04-22 01:01 | 55.41231 | -4.10377 | 21008 ft | 345 kts | 26° |
| 2026-04-22 01:01 | 55.43399 | -4.08614 | 20405 ft | 339 kts | 26° |
| 2026-04-22 01:01 | 55.45520 | -4.06914 | 19807 ft | 335 kts | 26° |
| 2026-04-22 01:01 | 55.47638 | -4.05235 | 19205 ft | 331 kts | 26° |
| 2026-04-22 01:02 | 55.49721 | -4.03593 | 18607 ft | 328 kts | 26° |
| 2026-04-22 01:02 | 55.51801 | -4.01964 | 18003 ft | 323 kts | 26° |
| 2026-04-22 01:02 | 55.53849 | -4.00367 | 17399 ft | 317 kts | 26° |
| 2026-04-22 01:02 | 55.55825 | -3.98836 | 16790 ft | 301 kts | 26° |
| 2026-04-22 01:03 | 55.57678 | -3.97424 | 16187 ft | 284 kts | 26° |
| 2026-04-22 01:03 | 55.59468 | -3.96073 | 15577 ft | 273 kts | 26° |
| 2026-04-22 01:03 | 55.61182 | -3.94793 | 14980 ft | 267 kts | 26° |
| 2026-04-22 01:03 | 55.62887 | -3.93527 | 14376 ft | 262 kts | 26° |
| 2026-04-22 01:04 | 55.64566 | -3.92290 | 13771 ft | 258 kts | 26° |
| 2026-04-22 01:04 | 55.66201 | -3.91093 | 13175 ft | 254 kts | 26° |
| 2026-04-22 01:04 | 55.67835 | -3.89905 | 12573 ft | 251 kts | 26° |
| 2026-04-22 01:04 | 55.69430 | -3.88754 | 11975 ft | 248 kts | 26° |
| 2026-04-22 01:05 | 55.71001 | -3.87634 | 11362 ft | 239 kts | 26° |
| 2026-04-22 01:05 | 55.72537 | -3.86552 | 10760 ft | 235 kts | 26° |
| 2026-04-22 01:05 | 55.74047 | -3.85494 | 10153 ft | 231 kts | 27° |
| 2026-04-22 01:05 | 55.75456 | -3.84256 | 9560 ft | 225 kts | 33° |
| 2026-04-22 01:06 | 55.76816 | -3.82879 | 8956 ft | 222 kts | 35° |
| 2026-04-22 01:06 | 55.78135 | -3.81499 | 8358 ft | 219 kts | 36° |
| 2026-04-22 01:06 | 55.79420 | -3.80130 | 7763 ft | 216 kts | 38° |
| 2026-04-22 01:06 | 55.80551 | -3.78456 | 7166 ft | 209 kts | 49° |
| 2026-04-22 01:07 | 55.81491 | -3.76530 | 6631 ft | 202 kts | 56° |
| 2026-04-22 01:07 | 55.82311 | -3.74524 | 6133 ft | 195 kts | 59° |
| 2026-04-22 01:07 | 55.83037 | -3.72574 | 5628 ft | 187 kts | 61° |
| 2026-04-22 01:07 | 55.83706 | -3.70688 | 5095 ft | 170 kts | 62° |
| 2026-04-22 01:08 | 55.84317 | -3.68915 | 4628 ft | 167 kts | 62° |
| 2026-04-22 01:08 | 55.84941 | -3.67069 | 4406 ft | 178 kts | 62° |
| 2026-04-22 01:08 | 55.85566 | -3.65221 | 4150 ft | 172 kts | 61° |
| 2026-04-22 01:08 | 55.86177 | -3.63417 | 3895 ft | 166 kts | 61° |
| 2026-04-22 01:09 | 55.86760 | -3.61694 | 3616 ft | 162 kts | 62° |
| 2026-04-22 01:09 | 55.87338 | -3.59979 | 3314 ft | 160 kts | 61° |
| 2026-04-22 01:09 | 55.87909 | -3.58284 | 2962 ft | 160 kts | 61° |
| 2026-04-22 01:09 | 55.88462 | -3.56641 | 2582 ft | 153 kts | 61° |
| 2026-04-22 01:10 | 55.89005 | -3.55032 | 2201 ft | 149 kts | 61° |
| 2026-04-22 01:10 | 55.89500 | -3.53573 | 2010 ft | 127 kts | 60° |
| 2026-04-22 01:10 | 55.89941 | -3.52266 | 1855 ft | 123 kts | 60° |
| 2026-04-22 01:10 | 55.90386 | -3.50944 | 1695 ft | 124 kts | 59° |
| 2026-04-22 01:11 | 55.90831 | -3.49629 | 1556 ft | 126 kts | 59° |
| 2026-04-22 01:11 | 55.91290 | -3.48270 | 1414 ft | 128 kts | 59° |
| 2026-04-22 01:11 | 55.91754 | -3.46894 | 1250 ft | 130 kts | 59° |
| 2026-04-22 01:11 | 55.92216 | -3.45524 | 1080 ft | 130 kts | 59° |
| 2026-04-22 01:12 | 55.92686 | -3.44132 | 906 ft | 130 kts | 59° |
| 2026-04-22 01:12 | 55.93151 | -3.42750 | 719 ft | 131 kts | 59° |
| 2026-04-22 01:12 | 55.93620 | -3.41357 | 520 ft | 131 kts | 59° |
| 2026-04-22 01:12 | 55.94088 | -3.39968 | 320 ft | 130 kts | 59° |
| 2026-04-22 01:13 | 55.94550 | -3.38595 | 159 ft | 126 kts | 59° |
| 2026-04-22 01:13 | 55.94922 | -3.37485 | 144 ft | 75 kts | 59° |
| 2026-04-22 01:13 | 55.95102 | -3.36948 | 144 ft | 37 kts | 58° |
| 2026-04-22 01:13 | 55.95213 | -3.36621 | 144 ft | 24 kts | 59° |
| 2026-04-22 01:14 | 55.95258 | -3.36435 | 144 ft | 10 kts | 108° |
| 2026-04-22 01:14 | 55.95196 | -3.36351 | 144 ft | 12 kts | 149° |
| 2026-04-22 01:14 | 55.95118 | -3.36338 | 144 ft | 13 kts | 231° |
| 2026-04-22 01:14 | 55.95055 | -3.36387 | 144 ft | 10 kts | 165° |
| 2026-04-22 01:15 | 55.94995 | -3.36451 | 144 ft | 9 kts | 237° |
| 2026-04-22 01:15 | 55.94974 | -3.36511 | 144 ft | 7 kts | 239° |
| 2026-04-22 01:15 | 55.94938 | -3.36527 | 144 ft | 5 kts | 149° |
| 2026-04-22 01:15 | 55.94902 | -3.36489 | 144 ft | 2 kts | 149° |
| 2026-04-22 01:16 | 55.94901 | -3.36487 | 144 ft | 0 kts | 149° |